sensor_id;sensor_type;location;lat;lon;timestamp;P1;durP1;ratioP1;P2;durP2;ratioP2
71769;SDS011;59605;52.122;5.420;2022-09-13T00:00:57;2.80;;;2.08;;
71769;SDS011;59605;52.122;5.420;2022-09-13T00:03:24;2.17;;;1.83;;
71769;SDS011;59605;52.122;5.420;2022-09-13T00:05:51;3.47;;;2.00;;
71769;SDS011;59605;52.122;5.420;2022-09-13T00:08:18;2.27;;;2.00;;
71769;SDS011;59605;52.122;5.420;2022-09-13T00:10:45;3.38;;;2.20;;
71769;SDS011;59605;52.122;5.420;2022-09-13T00:13:12;2.72;;;1.98;;
71769;SDS011;59605;52.122;5.420;2022-09-13T00:15:44;2.15;;;1.80;;
71769;SDS011;59605;52.122;5.420;2022-09-13T00:18:12;3.88;;;2.00;;
71769;SDS011;59605;52.122;5.420;2022-09-13T00:20:39;2.53;;;2.00;;
71769;SDS011;59605;52.122;5.420;2022-09-13T00:23:05;4.07;;;2.15;;
71769;SDS011;59605;52.122;5.420;2022-09-13T00:25:32;3.03;;;2.20;;
71769;SDS011;59605;52.122;5.420;2022-09-13T00:27:58;3.42;;;2.25;;
71769;SDS011;59605;52.122;5.420;2022-09-13T00:30:24;2.92;;;2.17;;
71769;SDS011;59605;52.122;5.420;2022-09-13T00:32:51;3.10;;;1.90;;
71769;SDS011;59605;52.122;5.420;2022-09-13T00:35:17;2.92;;;2.22;;
71769;SDS011;59605;52.122;5.420;2022-09-13T00:37:44;3.83;;;2.17;;
71769;SDS011;59605;52.122;5.420;2022-09-13T00:40:10;2.40;;;2.20;;
71769;SDS011;59605;52.122;5.420;2022-09-13T00:42:36;3.17;;;2.00;;
71769;SDS011;59605;52.122;5.420;2022-09-13T00:47:37;2.80;;;2.10;;
71769;SDS011;59605;52.122;5.420;2022-09-13T00:55:43;2.20;;;2.00;;
71769;SDS011;59605;52.122;5.420;2022-09-13T00:58:17;2.37;;;1.90;;
71769;SDS011;59605;52.122;5.420;2022-09-13T01:00:48;3.85;;;1.80;;
71769;SDS011;59605;52.122;5.420;2022-09-13T01:03:15;2.80;;;1.90;;
71769;SDS011;59605;52.122;5.420;2022-09-13T01:05:47;2.95;;;1.75;;
71769;SDS011;59605;52.122;5.420;2022-09-13T01:08:19;2.45;;;2.00;;
71769;SDS011;59605;52.122;5.420;2022-09-13T01:10:49;2.80;;;1.97;;
71769;SDS011;59605;52.122;5.420;2022-09-13T01:13:18;2.42;;;1.80;;
71769;SDS011;59605;52.122;5.420;2022-09-13T01:15:46;2.30;;;2.08;;
71769;SDS011;59605;52.122;5.420;2022-09-13T01:18:13;2.40;;;2.20;;
71769;SDS011;59605;52.122;5.420;2022-09-13T01:20:45;2.40;;;2.20;;
71769;SDS011;59605;52.122;5.420;2022-09-13T01:39:47;1.80;;;1.70;;
71769;SDS011;59605;52.122;5.420;2022-09-13T01:42:15;2.28;;;1.60;;
71769;SDS011;59605;52.122;5.420;2022-09-13T01:47:48;2.60;;;1.80;;
71769;SDS011;59605;52.122;5.420;2022-09-13T01:50:24;2.87;;;2.40;;
71769;SDS011;59605;52.122;5.420;2022-09-13T01:53:16;1.98;;;1.77;;
71769;SDS011;59605;52.122;5.420;2022-09-13T01:55:46;2.42;;;1.98;;
71769;SDS011;59605;52.122;5.420;2022-09-13T02:01:05;2.15;;;1.80;;
71769;SDS011;59605;52.122;5.420;2022-09-13T02:03:36;1.97;;;1.83;;
71769;SDS011;59605;52.122;5.420;2022-09-13T02:06:10;2.25;;;1.92;;
71769;SDS011;59605;52.122;5.420;2022-09-13T02:08:44;2.15;;;1.70;;
71769;SDS011;59605;52.122;5.420;2022-09-13T02:11:15;2.20;;;2.00;;
71769;SDS011;59605;52.122;5.420;2022-09-13T02:13:47;2.10;;;1.90;;
71769;SDS011;59605;52.122;5.420;2022-09-13T02:16:18;3.23;;;2.23;;
71769;SDS011;59605;52.122;5.420;2022-09-13T02:18:52;2.55;;;2.15;;
71769;SDS011;59605;52.122;5.420;2022-09-13T02:21:28;1.77;;;1.67;;
71769;SDS011;59605;52.122;5.420;2022-09-13T02:24:02;2.35;;;2.03;;
71769;SDS011;59605;52.122;5.420;2022-09-13T02:26:32;2.25;;;2.00;;
71769;SDS011;59605;52.122;5.420;2022-09-13T02:29:02;2.63;;;1.77;;
71769;SDS011;59605;52.122;5.420;2022-09-13T02:31:36;2.30;;;1.67;;
71769;SDS011;59605;52.122;5.420;2022-09-13T02:34:16;2.22;;;2.03;;
71769;SDS011;59605;52.122;5.420;2022-09-13T02:36:46;2.63;;;1.85;;
71769;SDS011;59605;52.122;5.420;2022-09-13T02:39:15;2.67;;;2.47;;
71769;SDS011;59605;52.122;5.420;2022-09-13T02:41:55;1.77;;;1.67;;
71769;SDS011;59605;52.122;5.420;2022-09-13T02:44:39;3.03;;;2.05;;
71769;SDS011;59605;52.122;5.420;2022-09-13T02:50:02;2.40;;;2.03;;
71769;SDS011;59605;52.122;5.420;2022-09-13T02:55:34;2.47;;;1.90;;
71769;SDS011;59605;52.122;5.420;2022-09-13T02:58:13;1.85;;;1.75;;
71769;SDS011;59605;52.122;5.420;2022-09-13T03:00:53;2.90;;;2.30;;
71769;SDS011;59605;52.122;5.420;2022-09-13T03:03:20;2.08;;;1.88;;
71769;SDS011;59605;52.122;5.420;2022-09-13T03:05:47;2.25;;;2.03;;
71769;SDS011;59605;52.122;5.420;2022-09-13T03:08:13;2.07;;;1.87;;
71769;SDS011;59605;52.122;5.420;2022-09-13T03:10:47;1.95;;;1.80;;
71769;SDS011;59605;52.122;5.420;2022-09-13T03:16:19;2.00;;;1.83;;
71769;SDS011;59605;52.122;5.420;2022-09-13T03:19:08;2.25;;;2.00;;
71769;SDS011;59605;52.122;5.420;2022-09-13T03:30:43;2.33;;;2.13;;
71769;SDS011;59605;52.122;5.420;2022-09-13T03:33:30;3.53;;;2.22;;
71769;SDS011;59605;52.122;5.420;2022-09-13T03:36:11;3.97;;;2.07;;
71769;SDS011;59605;52.122;5.420;2022-09-13T03:38:56;2.03;;;1.65;;
71769;SDS011;59605;52.122;5.420;2022-09-13T03:41:31;3.95;;;1.85;;
71769;SDS011;59605;52.122;5.420;2022-09-13T03:44:02;2.25;;;2.00;;
71769;SDS011;59605;52.122;5.420;2022-09-13T03:46:34;2.67;;;2.47;;
71769;SDS011;59605;52.122;5.420;2022-09-13T03:49:06;3.30;;;2.00;;
71769;SDS011;59605;52.122;5.420;2022-09-13T03:51:38;2.83;;;2.20;;
71769;SDS011;59605;52.122;5.420;2022-09-13T03:54:07;2.08;;;1.98;;
71769;SDS011;59605;52.122;5.420;2022-09-13T03:56:36;2.53;;;2.33;;
71769;SDS011;59605;52.122;5.420;2022-09-13T03:59:03;2.17;;;1.98;;
71769;SDS011;59605;52.122;5.420;2022-09-13T04:01:29;2.30;;;2.00;;
71769;SDS011;59605;52.122;5.420;2022-09-13T04:03:56;2.55;;;2.35;;
71769;SDS011;59605;52.122;5.420;2022-09-13T04:06:22;2.13;;;1.83;;
71769;SDS011;59605;52.122;5.420;2022-09-13T04:08:48;2.50;;;2.30;;
71769;SDS011;59605;52.122;5.420;2022-09-13T04:11:15;2.40;;;2.20;;
71769;SDS011;59605;52.122;5.420;2022-09-13T04:13:41;2.37;;;2.17;;
71769;SDS011;59605;52.122;5.420;2022-09-13T04:16:08;3.85;;;2.17;;
71769;SDS011;59605;52.122;5.420;2022-09-13T04:18:34;2.55;;;2.22;;
71769;SDS011;59605;52.122;5.420;2022-09-13T04:21:01;2.60;;;2.40;;
71769;SDS011;59605;52.122;5.420;2022-09-13T04:23:27;2.63;;;2.42;;
71769;SDS011;59605;52.122;5.420;2022-09-13T04:25:59;2.47;;;2.27;;
71769;SDS011;59605;52.122;5.420;2022-09-13T04:28:27;2.40;;;2.20;;
71769;SDS011;59605;52.122;5.420;2022-09-13T04:30:53;2.55;;;2.35;;
71769;SDS011;59605;52.122;5.420;2022-09-13T04:33:19;2.58;;;2.38;;
71769;SDS011;59605;52.122;5.420;2022-09-13T04:35:46;2.42;;;2.20;;
71769;SDS011;59605;52.122;5.420;2022-09-13T04:38:12;2.67;;;2.27;;
71769;SDS011;59605;52.122;5.420;2022-09-13T04:40:38;3.17;;;2.45;;
71769;SDS011;59605;52.122;5.420;2022-09-13T04:43:05;2.40;;;2.20;;
71769;SDS011;59605;52.122;5.420;2022-09-13T04:45:32;2.70;;;2.25;;
71769;SDS011;59605;52.122;5.420;2022-09-13T04:47:58;2.60;;;2.40;;
71769;SDS011;59605;52.122;5.420;2022-09-13T04:50:25;2.50;;;2.30;;
71769;SDS011;59605;52.122;5.420;2022-09-13T04:52:53;2.58;;;2.30;;
71769;SDS011;59605;52.122;5.420;2022-09-13T04:55:20;2.40;;;2.20;;
71769;SDS011;59605;52.122;5.420;2022-09-13T04:57:46;2.53;;;2.33;;
71769;SDS011;59605;52.122;5.420;2022-09-13T05:00:18;2.50;;;2.30;;
71769;SDS011;59605;52.122;5.420;2022-09-13T05:02:44;2.50;;;2.30;;
71769;SDS011;59605;52.122;5.420;2022-09-13T05:05:11;2.53;;;2.33;;
71769;SDS011;59605;52.122;5.420;2022-09-13T05:07:37;2.63;;;2.42;;
71769;SDS011;59605;52.122;5.420;2022-09-13T05:10:04;2.55;;;2.35;;
71769;SDS011;59605;52.122;5.420;2022-09-13T05:12:31;2.70;;;2.50;;
71769;SDS011;59605;52.122;5.420;2022-09-13T05:14:57;2.20;;;2.00;;
71769;SDS011;59605;52.122;5.420;2022-09-13T05:17:24;3.10;;;2.80;;
71769;SDS011;59605;52.122;5.420;2022-09-13T05:19:50;2.50;;;2.30;;
71769;SDS011;59605;52.122;5.420;2022-09-13T05:22:16;2.63;;;2.42;;
71769;SDS011;59605;52.122;5.420;2022-09-13T05:24:43;2.92;;;2.53;;
71769;SDS011;59605;52.122;5.420;2022-09-13T05:27:09;2.70;;;2.20;;
71769;SDS011;59605;52.122;5.420;2022-09-13T05:29:36;2.85;;;2.28;;
71769;SDS011;59605;52.122;5.420;2022-09-13T05:32:02;3.88;;;2.30;;
71769;SDS011;59605;52.122;5.420;2022-09-13T05:34:29;2.50;;;2.20;;
71769;SDS011;59605;52.122;5.420;2022-09-13T05:36:55;2.85;;;2.40;;
71769;SDS011;59605;52.122;5.420;2022-09-13T05:39:22;2.67;;;2.47;;
71769;SDS011;59605;52.122;5.420;2022-09-13T05:42:04;4.20;;;2.75;;
71769;SDS011;59605;52.122;5.420;2022-09-13T05:44:31;2.63;;;2.40;;
71769;SDS011;59605;52.122;5.420;2022-09-13T05:46:57;2.78;;;2.58;;
71769;SDS011;59605;52.122;5.420;2022-09-13T05:49:23;3.90;;;2.88;;
71769;SDS011;59605;52.122;5.420;2022-09-13T05:51:50;2.83;;;2.03;;
71769;SDS011;59605;52.122;5.420;2022-09-13T05:54:16;2.75;;;2.30;;
71769;SDS011;59605;52.122;5.420;2022-09-13T05:56:43;2.72;;;2.30;;
71769;SDS011;59605;52.122;5.420;2022-09-13T05:59:12;2.53;;;2.13;;
71769;SDS011;59605;52.122;5.420;2022-09-13T06:01:41;5.07;;;3.28;;
71769;SDS011;59605;52.122;5.420;2022-09-13T06:04:08;6.30;;;3.43;;
71769;SDS011;59605;52.122;5.420;2022-09-13T06:06:34;4.32;;;3.08;;
71769;SDS011;59605;52.122;5.420;2022-09-13T06:09:01;5.05;;;3.22;;
71769;SDS011;59605;52.122;5.420;2022-09-13T06:11:27;4.90;;;2.40;;
71769;SDS011;59605;52.122;5.420;2022-09-13T06:13:53;4.00;;;2.33;;
71769;SDS011;59605;52.122;5.420;2022-09-13T06:16:20;2.93;;;2.53;;
71769;SDS011;59605;52.122;5.420;2022-09-13T06:18:47;2.80;;;2.45;;
71769;SDS011;59605;52.122;5.420;2022-09-13T06:21:15;5.55;;;2.85;;
71769;SDS011;59605;52.122;5.420;2022-09-13T06:23:47;2.60;;;2.40;;
71769;SDS011;59605;52.122;5.420;2022-09-13T06:26:16;2.70;;;2.47;;
71769;SDS011;59605;52.122;5.420;2022-09-13T06:28:48;2.97;;;2.70;;
71769;SDS011;59605;52.122;5.420;2022-09-13T06:31:16;3.15;;;2.78;;
71769;SDS011;59605;52.122;5.420;2022-09-13T06:33:44;3.25;;;2.55;;
71769;SDS011;59605;52.122;5.420;2022-09-13T06:36:14;3.25;;;2.92;;
71769;SDS011;59605;52.122;5.420;2022-09-13T06:38:43;3.00;;;2.70;;
71769;SDS011;59605;52.122;5.420;2022-09-13T06:41:11;3.03;;;2.77;;
71769;SDS011;59605;52.122;5.420;2022-09-13T06:43:39;3.45;;;2.80;;
71769;SDS011;59605;52.122;5.420;2022-09-13T06:46:07;4.43;;;2.85;;
71769;SDS011;59605;52.122;5.420;2022-09-13T06:48:37;3.10;;;2.80;;
71769;SDS011;59605;52.122;5.420;2022-09-13T06:51:09;2.97;;;2.67;;
71769;SDS011;59605;52.122;5.420;2022-09-13T06:53:38;3.80;;;2.60;;
71769;SDS011;59605;52.122;5.420;2022-09-13T06:56:07;3.95;;;3.10;;
71769;SDS011;59605;52.122;5.420;2022-09-13T06:58:35;7.65;;;2.65;;
71769;SDS011;59605;52.122;5.420;2022-09-13T07:03:53;3.10;;;2.80;;
71769;SDS011;59605;52.122;5.420;2022-09-13T07:06:25;5.70;;;3.70;;
71769;SDS011;59605;52.122;5.420;2022-09-13T07:08:54;3.55;;;3.20;;
71769;SDS011;59605;52.122;5.420;2022-09-13T07:11:22;4.85;;;3.10;;
71769;SDS011;59605;52.122;5.420;2022-09-13T07:13:51;5.40;;;3.33;;
71769;SDS011;59605;52.122;5.420;2022-09-13T07:16:19;3.85;;;3.03;;
71769;SDS011;59605;52.122;5.420;2022-09-13T07:18:51;6.23;;;4.77;;
71769;SDS011;59605;52.122;5.420;2022-09-13T07:21:18;4.95;;;3.47;;
71769;SDS011;59605;52.122;5.420;2022-09-13T07:23:45;5.30;;;3.70;;
71769;SDS011;59605;52.122;5.420;2022-09-13T07:26:12;7.53;;;3.10;;
71769;SDS011;59605;52.122;5.420;2022-09-13T07:28:42;6.38;;;3.00;;
71769;SDS011;59605;52.122;5.420;2022-09-13T07:33:38;8.35;;;3.25;;
71769;SDS011;59605;52.122;5.420;2022-09-13T07:36:06;4.80;;;3.20;;
71769;SDS011;59605;52.122;5.420;2022-09-13T07:38:34;4.65;;;3.38;;
71769;SDS011;59605;52.122;5.420;2022-09-13T07:41:02;8.68;;;3.50;;
71769;SDS011;59605;52.122;5.420;2022-09-13T07:43:32;8.53;;;3.00;;
71769;SDS011;59605;52.122;5.420;2022-09-13T07:46:05;4.88;;;3.20;;
71769;SDS011;59605;52.122;5.420;2022-09-13T07:48:35;4.65;;;2.58;;
71769;SDS011;59605;52.122;5.420;2022-09-13T07:51:04;5.20;;;3.40;;
71769;SDS011;59605;52.122;5.420;2022-09-13T07:53:32;4.97;;;2.70;;
71769;SDS011;59605;52.122;5.420;2022-09-13T07:56:04;5.43;;;3.00;;
71769;SDS011;59605;52.122;5.420;2022-09-13T07:58:38;6.85;;;2.80;;
71769;SDS011;59605;52.122;5.420;2022-09-13T08:01:07;5.65;;;2.80;;
71769;SDS011;59605;52.122;5.420;2022-09-13T08:03:39;4.45;;;2.40;;
71769;SDS011;59605;52.122;5.420;2022-09-13T08:06:06;3.90;;;3.17;;
71769;SDS011;59605;52.122;5.420;2022-09-13T08:08:34;8.27;;;2.90;;
71769;SDS011;59605;52.122;5.420;2022-09-13T08:11:02;4.32;;;2.50;;
71769;SDS011;59605;52.122;5.420;2022-09-13T08:13:30;5.30;;;2.78;;
71769;SDS011;59605;52.122;5.420;2022-09-13T08:16:00;9.73;;;2.60;;
71769;SDS011;59605;52.122;5.420;2022-09-13T08:18:31;8.77;;;2.38;;
71769;SDS011;59605;52.122;5.420;2022-09-13T08:20:58;4.17;;;2.23;;
71769;SDS011;59605;52.122;5.420;2022-09-13T08:23:26;5.78;;;2.70;;
71769;SDS011;59605;52.122;5.420;2022-09-13T08:25:53;3.67;;;2.17;;
71769;SDS011;59605;52.122;5.420;2022-09-13T08:28:20;3.35;;;2.45;;
71769;SDS011;59605;52.122;5.420;2022-09-13T08:30:52;3.88;;;2.13;;
71769;SDS011;59605;52.122;5.420;2022-09-13T08:33:19;4.67;;;2.23;;
71769;SDS011;59605;52.122;5.420;2022-09-13T08:35:48;3.72;;;1.73;;
71769;SDS011;59605;52.122;5.420;2022-09-13T08:38:18;2.17;;;1.95;;
71769;SDS011;59605;52.122;5.420;2022-09-13T08:40:48;4.80;;;2.13;;
71769;SDS011;59605;52.122;5.420;2022-09-13T08:46:28;3.97;;;1.87;;
71769;SDS011;59605;52.122;5.420;2022-09-13T08:49:00;7.78;;;1.92;;
71769;SDS011;59605;52.122;5.420;2022-09-13T08:54:14;4.20;;;2.20;;
71769;SDS011;59605;52.122;5.420;2022-09-13T08:56:48;4.30;;;1.98;;
71769;SDS011;59605;52.122;5.420;2022-09-13T09:07:39;3.05;;;1.58;;
71769;SDS011;59605;52.122;5.420;2022-09-13T09:10:21;3.47;;;1.60;;
71769;SDS011;59605;52.122;5.420;2022-09-13T09:13:00;3.93;;;1.90;;
71769;SDS011;59605;52.122;5.420;2022-09-13T09:18:02;2.25;;;1.63;;
71769;SDS011;59605;52.122;5.420;2022-09-13T09:20:36;1.88;;;1.35;;
71769;SDS011;59605;52.122;5.420;2022-09-13T09:23:11;5.55;;;1.60;;
71769;SDS011;59605;52.122;5.420;2022-09-13T09:25:47;2.43;;;1.40;;
71769;SDS011;59605;52.122;5.420;2022-09-13T09:28:18;2.45;;;1.38;;
71769;SDS011;59605;52.122;5.420;2022-09-13T09:30:57;3.00;;;1.73;;
71769;SDS011;59605;52.122;5.420;2022-09-13T09:36:32;2.92;;;1.20;;
71769;SDS011;59605;52.122;5.420;2022-09-13T09:39:06;2.37;;;1.07;;
71769;SDS011;59605;52.122;5.420;2022-09-13T09:41:36;4.40;;;1.35;;
71769;SDS011;59605;52.122;5.420;2022-09-13T09:44:09;2.47;;;1.55;;
71769;SDS011;59605;52.122;5.420;2022-09-13T09:46:53;2.45;;;1.20;;
71769;SDS011;59605;52.122;5.420;2022-09-13T09:49:32;2.42;;;1.10;;
71769;SDS011;59605;52.122;5.420;2022-09-13T09:52:22;1.80;;;1.10;;
71769;SDS011;59605;52.122;5.420;2022-09-13T09:54:55;2.42;;;1.30;;
71769;SDS011;59605;52.122;5.420;2022-09-13T10:00:29;3.45;;;1.10;;
71769;SDS011;59605;52.122;5.420;2022-09-13T10:02:59;1.40;;;0.80;;
71769;SDS011;59605;52.122;5.420;2022-09-13T10:05:42;1.83;;;1.00;;
71769;SDS011;59605;52.122;5.420;2022-09-13T10:08:22;1.13;;;0.80;;
71769;SDS011;59605;52.122;5.420;2022-09-13T10:10:56;2.60;;;1.00;;
71769;SDS011;59605;52.122;5.420;2022-09-13T10:13:27;2.90;;;1.20;;
71769;SDS011;59605;52.122;5.420;2022-09-13T10:15:58;2.20;;;1.15;;
71769;SDS011;59605;52.122;5.420;2022-09-13T10:18:26;1.90;;;0.90;;
71769;SDS011;59605;52.122;5.420;2022-09-13T10:23:43;5.38;;;0.75;;
71769;SDS011;59605;52.122;5.420;2022-09-13T10:26:11;2.05;;;0.82;;
71769;SDS011;59605;52.122;5.420;2022-09-13T10:31:33;4.00;;;0.90;;
71769;SDS011;59605;52.122;5.420;2022-09-13T10:34:06;2.38;;;0.73;;
71769;SDS011;59605;52.122;5.420;2022-09-13T10:36:42;2.97;;;1.00;;
71769;SDS011;59605;52.122;5.420;2022-09-13T10:39:19;3.40;;;1.05;;
71769;SDS011;59605;52.122;5.420;2022-09-13T10:41:52;1.60;;;1.10;;
71769;SDS011;59605;52.122;5.420;2022-09-13T10:44:29;3.30;;;0.80;;
71769;SDS011;59605;52.122;5.420;2022-09-13T10:46:56;2.55;;;0.75;;
71769;SDS011;59605;52.122;5.420;2022-09-13T10:49:35;8.00;;;1.60;;
71769;SDS011;59605;52.122;5.420;2022-09-13T10:52:23;4.22;;;1.00;;
71769;SDS011;59605;52.122;5.420;2022-09-13T10:57:47;3.83;;;0.60;;
71769;SDS011;59605;52.122;5.420;2022-09-13T11:00:18;1.73;;;0.73;;
71769;SDS011;59605;52.122;5.420;2022-09-13T11:05:49;2.92;;;0.80;;
71769;SDS011;59605;52.122;5.420;2022-09-13T11:19:35;3.28;;;0.77;;
71769;SDS011;59605;52.122;5.420;2022-09-13T11:27:58;2.53;;;0.63;;
71769;SDS011;59605;52.122;5.420;2022-09-13T11:31:18;2.17;;;0.65;;
71769;SDS011;59605;52.122;5.420;2022-09-13T11:39:30;5.30;;;0.63;;
71769;SDS011;59605;52.122;5.420;2022-09-13T11:56:15;3.30;;;0.80;;
71769;SDS011;59605;52.122;5.420;2022-09-13T11:58:50;2.65;;;0.70;;
71769;SDS011;59605;52.122;5.420;2022-09-13T12:01:22;6.13;;;0.90;;
71769;SDS011;59605;52.122;5.420;2022-09-13T12:04:01;1.95;;;0.70;;
71769;SDS011;59605;52.122;5.420;2022-09-13T12:06:36;1.97;;;0.50;;
71769;SDS011;59605;52.122;5.420;2022-09-13T12:09:15;2.13;;;0.70;;
71769;SDS011;59605;52.122;5.420;2022-09-13T12:11:47;1.63;;;0.70;;
71769;SDS011;59605;52.122;5.420;2022-09-13T12:14:20;3.08;;;0.85;;
71769;SDS011;59605;52.122;5.420;2022-09-13T12:16:54;3.83;;;0.88;;
71769;SDS011;59605;52.122;5.420;2022-09-13T12:19:29;2.63;;;0.70;;
71769;SDS011;59605;52.122;5.420;2022-09-13T12:21:59;3.75;;;0.80;;
71769;SDS011;59605;52.122;5.420;2022-09-13T12:27:16;2.85;;;0.70;;
71769;SDS011;59605;52.122;5.420;2022-09-13T12:29:53;1.77;;;0.70;;
71769;SDS011;59605;52.122;5.420;2022-09-13T12:32:25;1.30;;;0.57;;
71769;SDS011;59605;52.122;5.420;2022-09-13T12:34:59;1.25;;;0.80;;
71769;SDS011;59605;52.122;5.420;2022-09-13T12:40:38;1.33;;;0.73;;
71769;SDS011;59605;52.122;5.420;2022-09-13T12:43:15;4.07;;;0.70;;
71769;SDS011;59605;52.122;5.420;2022-09-13T12:48:38;2.33;;;0.95;;
71769;SDS011;59605;52.122;5.420;2022-09-13T12:51:25;2.13;;;0.80;;
71769;SDS011;59605;52.122;5.420;2022-09-13T12:54:00;1.40;;;0.70;;
71769;SDS011;59605;52.122;5.420;2022-09-13T12:56:31;4.03;;;0.80;;
71769;SDS011;59605;52.122;5.420;2022-09-13T13:01:53;1.63;;;0.65;;
71769;SDS011;59605;52.122;5.420;2022-09-13T13:06:56;0.98;;;0.60;;
71769;SDS011;59605;52.122;5.420;2022-09-13T13:12:10;0.87;;;0.50;;
71769;SDS011;59605;52.122;5.420;2022-09-13T13:14:50;1.00;;;0.70;;
71769;SDS011;59605;52.122;5.420;2022-09-13T13:17:35;2.30;;;0.60;;
71769;SDS011;59605;52.122;5.420;2022-09-13T13:52:39;1.77;;;0.50;;
71769;SDS011;59605;52.122;5.420;2022-09-13T14:00:59;2.17;;;0.70;;
71769;SDS011;59605;52.122;5.420;2022-09-13T14:03:31;0.82;;;0.38;;
71769;SDS011;59605;52.122;5.420;2022-09-13T14:06:11;3.00;;;0.50;;
71769;SDS011;59605;52.122;5.420;2022-09-13T14:09:02;0.50;;;0.40;;
71769;SDS011;59605;52.122;5.420;2022-09-13T14:19:50;0.70;;;0.40;;
71769;SDS011;59605;52.122;5.420;2022-09-13T14:22:24;3.33;;;0.50;;
71769;SDS011;59605;52.122;5.420;2022-09-13T14:24:52;2.13;;;0.43;;
71769;SDS011;59605;52.122;5.420;2022-09-13T14:27:19;2.38;;;0.43;;
71769;SDS011;59605;52.122;5.420;2022-09-13T14:29:50;2.72;;;0.63;;
71769;SDS011;59605;52.122;5.420;2022-09-13T14:32:20;2.50;;;0.57;;
71769;SDS011;59605;52.122;5.420;2022-09-13T14:34:51;3.10;;;1.40;;
71769;SDS011;59605;52.122;5.420;2022-09-13T14:37:18;4.18;;;0.50;;
71769;SDS011;59605;52.122;5.420;2022-09-13T14:42:37;1.67;;;0.50;;
71769;SDS011;59605;52.122;5.420;2022-09-13T14:45:17;1.00;;;0.53;;
71769;SDS011;59605;52.122;5.420;2022-09-13T14:48:07;3.47;;;0.60;;
71769;SDS011;59605;52.122;5.420;2022-09-13T14:50:40;1.33;;;0.40;;
71769;SDS011;59605;52.122;5.420;2022-09-13T14:53:13;4.28;;;0.63;;
71769;SDS011;59605;52.122;5.420;2022-09-13T14:55:50;3.70;;;0.40;;
71769;SDS011;59605;52.122;5.420;2022-09-13T14:58:28;3.13;;;0.70;;
71769;SDS011;59605;52.122;5.420;2022-09-13T15:01:02;4.95;;;0.50;;
71769;SDS011;59605;52.122;5.420;2022-09-13T15:03:34;3.15;;;0.40;;
71769;SDS011;59605;52.122;5.420;2022-09-13T15:06:02;1.75;;;0.50;;
71769;SDS011;59605;52.122;5.420;2022-09-13T15:11:00;2.93;;;0.60;;
71769;SDS011;59605;52.122;5.420;2022-09-13T15:13:27;4.07;;;0.60;;
71769;SDS011;59605;52.122;5.420;2022-09-13T15:15:54;4.40;;;0.50;;
71769;SDS011;59605;52.122;5.420;2022-09-13T15:18:25;3.08;;;0.45;;
71769;SDS011;59605;52.122;5.420;2022-09-13T15:21:02;3.00;;;0.35;;
71769;SDS011;59605;52.122;5.420;2022-09-13T15:26:07;1.20;;;0.30;;
71769;SDS011;59605;52.122;5.420;2022-09-13T15:28:49;2.10;;;0.40;;
71769;SDS011;59605;52.122;5.420;2022-09-13T15:31:22;1.33;;;0.40;;
71769;SDS011;59605;52.122;5.420;2022-09-13T15:36:41;2.70;;;0.40;;
71769;SDS011;59605;52.122;5.420;2022-09-13T15:41:35;5.43;;;0.50;;
71769;SDS011;59605;52.122;5.420;2022-09-13T15:44:07;2.58;;;0.50;;
71769;SDS011;59605;52.122;5.420;2022-09-13T15:46:36;5.47;;;0.90;;
71769;SDS011;59605;52.122;5.420;2022-09-13T15:49:12;2.13;;;0.43;;
71769;SDS011;59605;52.122;5.420;2022-09-13T15:51:45;1.95;;;0.30;;
71769;SDS011;59605;52.122;5.420;2022-09-13T15:54:12;4.15;;;0.40;;
71769;SDS011;59605;52.122;5.420;2022-09-13T15:56:41;2.45;;;0.40;;
71769;SDS011;59605;52.122;5.420;2022-09-13T15:59:13;4.90;;;0.60;;
71769;SDS011;59605;52.122;5.420;2022-09-13T16:01:41;2.53;;;0.40;;
71769;SDS011;59605;52.122;5.420;2022-09-13T16:04:08;2.92;;;0.38;;
71769;SDS011;59605;52.122;5.420;2022-09-13T16:06:35;1.50;;;0.45;;
71769;SDS011;59605;52.122;5.420;2022-09-13T16:09:15;1.52;;;0.40;;
71769;SDS011;59605;52.122;5.420;2022-09-13T16:11:44;1.65;;;0.77;;
71769;SDS011;59605;52.122;5.420;2022-09-13T16:14:12;5.40;;;0.40;;
71769;SDS011;59605;52.122;5.420;2022-09-13T16:16:39;4.82;;;0.57;;
71769;SDS011;59605;52.122;5.420;2022-09-13T16:19:08;4.00;;;0.55;;
71769;SDS011;59605;52.122;5.420;2022-09-13T16:21:40;6.95;;;1.10;;
71769;SDS011;59605;52.122;5.420;2022-09-13T16:24:06;4.53;;;0.70;;
71769;SDS011;59605;52.122;5.420;2022-09-13T16:26:33;2.53;;;0.70;;
71769;SDS011;59605;52.122;5.420;2022-09-13T16:28:59;2.00;;;0.70;;
71769;SDS011;59605;52.122;5.420;2022-09-13T16:31:26;7.07;;;1.13;;
71769;SDS011;59605;52.122;5.420;2022-09-13T16:33:52;3.38;;;0.75;;
71769;SDS011;59605;52.122;5.420;2022-09-13T16:36:19;3.00;;;0.60;;
71769;SDS011;59605;52.122;5.420;2022-09-13T16:38:46;1.67;;;0.40;;
71769;SDS011;59605;52.122;5.420;2022-09-13T16:41:12;4.13;;;0.93;;
71769;SDS011;59605;52.122;5.420;2022-09-13T16:43:38;2.35;;;0.40;;
71769;SDS011;59605;52.122;5.420;2022-09-13T16:46:06;6.47;;;0.70;;
71769;SDS011;59605;52.122;5.420;2022-09-13T16:48:34;3.17;;;0.40;;
71769;SDS011;59605;52.122;5.420;2022-09-13T16:51:04;4.03;;;0.50;;
71769;SDS011;59605;52.122;5.420;2022-09-13T16:53:33;3.92;;;0.43;;
71769;SDS011;59605;52.122;5.420;2022-09-13T16:56:04;1.85;;;0.40;;
71769;SDS011;59605;52.122;5.420;2022-09-13T16:58:34;4.75;;;0.50;;
71769;SDS011;59605;52.122;5.420;2022-09-13T17:01:03;5.38;;;0.50;;
71769;SDS011;59605;52.122;5.420;2022-09-13T17:03:33;5.90;;;0.70;;
71769;SDS011;59605;52.122;5.420;2022-09-13T17:06:02;4.60;;;0.30;;
71769;SDS011;59605;52.122;5.420;2022-09-13T17:08:31;10.07;;;1.30;;
71769;SDS011;59605;52.122;5.420;2022-09-13T17:10:58;2.47;;;0.30;;
71769;SDS011;59605;52.122;5.420;2022-09-13T17:13:25;3.63;;;0.40;;
71769;SDS011;59605;52.122;5.420;2022-09-13T17:15:51;3.50;;;0.30;;
71769;SDS011;59605;52.122;5.420;2022-09-13T17:18:21;4.68;;;0.30;;
71769;SDS011;59605;52.122;5.420;2022-09-13T17:20:48;6.60;;;0.65;;
71769;SDS011;59605;52.122;5.420;2022-09-13T17:23:16;2.65;;;0.50;;
71769;SDS011;59605;52.122;5.420;2022-09-13T17:25:44;2.17;;;0.38;;
71769;SDS011;59605;52.122;5.420;2022-09-13T17:28:12;2.07;;;0.30;;
71769;SDS011;59605;52.122;5.420;2022-09-13T17:30:39;2.10;;;0.30;;
71769;SDS011;59605;52.122;5.420;2022-09-13T17:33:06;6.38;;;0.40;;
71769;SDS011;59605;52.122;5.420;2022-09-13T17:35:33;3.72;;;0.50;;
71769;SDS011;59605;52.122;5.420;2022-09-13T17:38:00;1.45;;;0.68;;
71769;SDS011;59605;52.122;5.420;2022-09-13T17:40:28;2.13;;;0.30;;
71769;SDS011;59605;52.122;5.420;2022-09-13T17:42:55;2.55;;;0.30;;
71769;SDS011;59605;52.122;5.420;2022-09-13T17:45:22;5.78;;;0.45;;
71769;SDS011;59605;52.122;5.420;2022-09-13T17:47:52;8.25;;;0.40;;
71769;SDS011;59605;52.122;5.420;2022-09-13T17:50:20;3.53;;;0.77;;
71769;SDS011;59605;52.122;5.420;2022-09-13T17:52:46;1.90;;;0.23;;
71769;SDS011;59605;52.122;5.420;2022-09-13T17:55:13;1.98;;;0.40;;
71769;SDS011;59605;52.122;5.420;2022-09-13T17:57:40;2.70;;;1.05;;
71769;SDS011;59605;52.122;5.420;2022-09-13T18:00:06;6.43;;;1.02;;
71769;SDS011;59605;52.122;5.420;2022-09-13T18:02:35;5.88;;;0.50;;
71769;SDS011;59605;52.122;5.420;2022-09-13T18:05:02;4.47;;;0.80;;
71769;SDS011;59605;52.122;5.420;2022-09-13T18:07:33;3.70;;;0.30;;
71769;SDS011;59605;52.122;5.420;2022-09-13T18:10:00;3.40;;;0.50;;
71769;SDS011;59605;52.122;5.420;2022-09-13T18:12:26;3.17;;;0.20;;
71769;SDS011;59605;52.122;5.420;2022-09-13T18:14:52;6.00;;;0.70;;
71769;SDS011;59605;52.122;5.420;2022-09-13T18:17:19;4.10;;;0.53;;
71769;SDS011;59605;52.122;5.420;2022-09-13T18:19:45;4.50;;;0.40;;
71769;SDS011;59605;52.122;5.420;2022-09-13T18:22:12;1.52;;;0.30;;
71769;SDS011;59605;52.122;5.420;2022-09-13T18:24:39;1.98;;;0.50;;
71769;SDS011;59605;52.122;5.420;2022-09-13T18:27:05;4.18;;;0.30;;
71769;SDS011;59605;52.122;5.420;2022-09-13T18:29:32;2.20;;;0.30;;